createdAt,value
2024-05-09T00:00:39.888Z,62394.72
2024-05-09T00:03:12.025Z,62400.69
2024-05-09T00:05:46.464Z,62423.88
2024-05-09T00:08:16.859Z,62383.38
2024-05-09T00:10:46.815Z,62343.25
2024-05-09T00:13:16.919Z,62357.25
2024-05-09T00:15:46.712Z,62372.00
2024-05-09T00:18:16.711Z,62388.09
2024-05-09T00:20:49.282Z,62369.84
2024-05-09T00:23:19.267Z,62387.06
2024-05-09T00:25:49.095Z,62398.91
2024-05-09T00:28:18.916Z,62408.72
2024-05-09T00:30:48.672Z,62399.03
2024-05-09T00:33:18.761Z,62419.00
2024-05-09T00:35:51.293Z,62413.13
2024-05-09T00:38:21.271Z,62415.69
2024-05-09T00:40:51.173Z,62412.50
2024-05-09T00:43:20.949Z,62411.97
2024-05-09T00:45:51.342Z,62414.19
2024-05-09T00:48:21.719Z,62398.44
2024-05-09T00:50:55.967Z,62408.66
2024-05-09T00:53:26.872Z,62396.94
2024-05-09T00:55:59.023Z,62408.78
2024-05-09T00:58:31.913Z,62410.88
2024-05-09T01:01:04.406Z,62415.69
2024-05-09T01:03:34.303Z,62417.38
2024-05-09T01:06:07.140Z,62406.47
2024-05-09T01:08:37.161Z,62397.41
2024-05-09T01:11:09.174Z,62392.47
2024-05-09T01:13:39.128Z,62403.84
2024-05-09T01:16:09.390Z,62374.69
2024-05-09T01:18:39.319Z,62350.84
2024-05-09T01:21:11.934Z,62343.84
2024-05-09T01:23:44.544Z,62344.88
2024-05-09T01:26:14.520Z,62345.41
2024-05-09T01:28:44.548Z,62382.81
2024-05-09T01:31:16.175Z,62385.44
2024-05-09T01:33:46.428Z,62402.69
2024-05-09T01:36:16.357Z,62399.03
2024-05-09T01:38:49.000Z,62390.88
2024-05-09T01:41:18.801Z,62398.44
2024-05-09T01:43:48.637Z,62395.19
2024-05-09T01:46:19.531Z,62367.06
2024-05-09T01:48:49.914Z,62376.88
2024-05-09T01:51:19.983Z,62367.59
2024-05-09T01:53:52.438Z,62374.03
2024-05-09T01:56:31.022Z,62380.03
2024-05-09T01:59:02.030Z,62361.66
2024-05-09T02:01:55.310Z,62354.69
2024-05-09T02:04:21.811Z,62338.38
2024-05-09T02:06:51.672Z,62357.34
2024-05-09T02:09:24.193Z,62367.59
2024-05-09T02:11:54.192Z,62356.78
2024-05-09T02:14:24.193Z,62359.00
2024-05-09T02:16:54.124Z,62357.88
2024-05-09T02:19:24.028Z,62364.28
2024-05-09T02:21:53.947Z,62365.44
2024-05-09T02:24:26.676Z,62374.03
2024-05-09T02:26:56.466Z,62380.09
2024-05-09T02:29:26.489Z,62382.13
2024-05-09T02:31:56.488Z,62375.78
2024-05-09T02:34:26.445Z,62353.59
2024-05-09T02:36:56.509Z,62373.63
2024-05-09T02:39:26.493Z,62365.91
2024-05-09T02:41:56.268Z,62352.94
2024-05-09T02:44:23.587Z,62348.50
2024-05-09T02:46:53.541Z,62356.16
2024-05-09T02:49:20.796Z,62362.75
2024-05-09T02:51:50.641Z,62355.69
2024-05-09T02:54:17.785Z,62347.13
2024-05-09T02:56:50.219Z,62348.75
2024-05-09T02:59:17.399Z,62355.09
2024-05-09T03:01:47.770Z,62345.94
2024-05-09T03:04:15.017Z,62331.94
2024-05-09T03:06:45.037Z,62327.03
2024-05-09T03:09:12.261Z,62296.13
2024-05-09T03:11:42.234Z,62312.56
2024-05-09T03:14:16.677Z,62320.00
2024-05-09T03:16:46.613Z,62323.78
2024-05-09T03:19:13.940Z,62309.13
2024-05-09T03:21:43.880Z,62298.44
2024-05-09T03:24:11.614Z,62302.63
2024-05-09T03:26:41.401Z,62261.47
2024-05-09T03:29:08.584Z,62273.97
2024-05-09T03:31:41.849Z,62269.59
2024-05-09T03:34:10.192Z,62261.69
2024-05-09T03:36:44.327Z,62268.03
2024-05-09T03:39:17.157Z,62277.78
2024-05-09T03:41:46.924Z,62272.84
2024-05-09T03:44:16.786Z,62262.19
2024-05-09T03:46:49.301Z,62250.75
2024-05-09T03:49:16.677Z,62260.56
2024-05-09T03:51:47.011Z,62262.19
2024-05-09T03:54:14.393Z,62249.59
2024-05-09T03:56:44.220Z,62243.78
2024-05-09T03:59:11.532Z,62247.09
2024-05-09T04:01:41.571Z,62257.22
2024-05-09T04:04:12.438Z,62243.88
2024-05-09T04:06:43.275Z,62244.25
2024-05-09T04:09:10.449Z,62228.13
2024-05-09T04:11:40.479Z,62229.75
2024-05-09T04:14:07.807Z,62212.41
2024-05-09T04:16:37.603Z,62236.16
2024-05-09T04:19:04.884Z,62237.78
2024-05-09T04:21:37.422Z,62225.28
2024-05-09T04:24:04.986Z,62236.31
2024-05-09T04:26:34.845Z,62236.25
2024-05-09T04:29:02.072Z,62226.50
2024-05-09T04:31:32.314Z,62237.88
2024-05-09T04:33:59.607Z,62226.50
2024-05-09T04:36:29.592Z,62214.56
2024-05-09T04:38:59.338Z,62212.88
2024-05-09T04:41:29.475Z,62227.06
2024-05-09T04:43:56.716Z,62207.53
2024-05-09T04:46:26.536Z,62214.63
2024-05-09T04:48:54.021Z,62205.38
2024-05-09T04:51:23.889Z,62228.69
2024-05-09T04:53:51.064Z,62237.31
2024-05-09T04:56:47.395Z,62220.03
2024-05-09T04:59:14.587Z,62226.50
2024-05-09T05:01:44.401Z,62231.44
2024-05-09T05:04:11.661Z,62239.47
2024-05-09T05:06:41.453Z,62245.50
2024-05-09T05:09:08.654Z,62249.25
2024-05-09T05:11:38.497Z,62246.91
2024-05-09T05:14:08.380Z,62239.94
2024-05-09T05:16:38.198Z,62252.44
2024-05-09T05:19:07.575Z,62256.28
2024-05-09T05:21:39.084Z,62249.19
2024-05-09T05:24:06.601Z,62226.59
2024-05-09T05:26:36.976Z,62255.69
2024-05-09T05:29:04.252Z,62281.13
2024-05-09T05:31:36.814Z,62295.66
2024-05-09T05:34:04.045Z,62315.59
2024-05-09T05:36:33.847Z,62326.56
2024-05-09T05:39:01.047Z,62373.47
2024-05-09T05:41:31.032Z,62387.06
2024-05-09T05:43:58.302Z,62412.03
2024-05-09T05:46:28.109Z,62438.00
2024-05-09T05:48:57.962Z,62476.38
2024-05-09T05:51:27.848Z,62503.38
2024-05-09T05:53:55.361Z,62527.34
2024-05-09T05:56:32.417Z,62507.16
2024-05-09T05:58:59.633Z,62505.69
2024-05-09T06:01:31.764Z,62511.56
2024-05-09T06:04:01.616Z,62546.78
2024-05-09T06:06:31.510Z,62550.50
2024-05-09T06:08:58.708Z,62574.41
2024-05-09T06:11:29.598Z,62577.59
2024-05-09T06:13:56.908Z,62582.00
2024-05-09T06:16:26.771Z,62624.22
2024-05-09T06:18:54.257Z,62636.25
2024-05-09T06:21:26.809Z,62622.03
2024-05-09T06:23:59.998Z,62612.50
2024-05-09T06:26:28.925Z,62619.94
2024-05-09T06:29:00.009Z,62621.56
2024-05-09T06:31:27.619Z,62657.94
2024-05-09T06:34:00.455Z,62643.25
2024-05-09T06:36:33.424Z,62652.41
2024-05-09T06:39:03.355Z,62649.75
2024-05-09T06:41:31.571Z,62666.06
2024-05-09T06:44:01.545Z,62679.06
2024-05-09T06:46:48.165Z,62681.31
2024-05-09T06:49:18.104Z,62672.50
2024-05-09T06:51:48.026Z,62685.03
2024-05-09T06:54:18.442Z,62661.69
2024-05-09T06:56:45.590Z,62700.28
2024-05-09T06:59:15.372Z,62723.00
2024-05-09T07:01:42.626Z,62657.94
2024-05-09T07:04:12.665Z,62674.25
2024-05-09T07:06:39.946Z,62705.78
2024-05-09T07:09:12.356Z,62676.34
2024-05-09T07:11:41.048Z,62674.25
2024-05-09T07:14:10.966Z,62682.38
2024-05-09T07:16:38.160Z,62694.72
2024-05-09T07:19:08.262Z,62680.81
2024-05-09T07:21:35.650Z,62682.88
2024-05-09T07:24:06.373Z,62696.41
2024-05-09T07:26:36.323Z,62702.94
2024-05-09T07:29:06.212Z,62704.00
2024-05-09T07:31:33.351Z,62708.97
2024-05-09T07:34:03.211Z,62727.94
2024-05-09T07:36:30.374Z,62729.47
2024-05-09T07:39:00.985Z,62733.31
2024-05-09T07:41:28.173Z,62742.53
2024-05-09T07:44:00.668Z,62744.66
2024-05-09T07:47:36.808Z,62735.47
2024-05-09T07:51:31.277Z,62756.72
2024-05-09T07:54:38.081Z,62765.25
2024-05-09T07:57:05.652Z,62766.38
2024-05-09T07:59:38.299Z,62789.28
2024-05-09T08:02:05.878Z,62793.03
2024-05-09T08:04:35.968Z,62809.31
2024-05-09T08:07:03.322Z,62790.25
2024-05-09T08:09:33.884Z,62782.63
2024-05-09T08:12:01.780Z,62775.09
2024-05-09T08:14:31.555Z,62789.22
2024-05-09T08:17:01.440Z,62786.03
2024-05-09T08:19:31.257Z,62798.38
2024-05-09T08:21:58.470Z,62809.81
2024-05-09T08:24:28.304Z,62827.78
2024-05-09T08:26:55.457Z,62829.97
2024-05-09T08:29:25.268Z,62920.69
2024-05-09T08:31:56.169Z,62929.47
2024-05-09T08:34:28.932Z,62952.72
2024-05-09T08:36:57.619Z,62926.19
2024-05-09T08:39:29.404Z,62938.66
2024-05-09T08:41:56.822Z,62934.31
2024-05-09T08:44:26.605Z,62959.84
2024-05-09T08:46:54.045Z,62915.25
2024-05-09T08:49:25.702Z,62927.25
2024-05-09T08:51:55.713Z,62978.41
2024-05-09T08:54:25.605Z,62981.06
2024-05-09T08:56:52.898Z,62935.88
2024-05-09T08:59:30.147Z,62913.16
2024-05-09T09:01:58.138Z,62913.69
2024-05-09T09:04:29.463Z,62899.97
2024-05-09T09:07:00.415Z,62920.22
2024-05-09T09:09:33.442Z,62936.50
2024-05-09T09:12:01.042Z,62951.09
2024-05-09T09:14:30.981Z,62968.00
2024-05-09T09:16:58.130Z,62982.16
2024-05-09T09:19:28.212Z,62998.41
2024-05-09T09:21:55.441Z,62986.50
2024-05-09T09:24:28.000Z,63028.38
2024-05-09T09:26:57.336Z,63027.34
2024-05-09T09:29:27.688Z,63005.47
2024-05-09T09:32:21.118Z,63014.22
2024-05-09T09:34:51.256Z,63021.78
2024-05-09T09:37:23.710Z,63018.63
2024-05-09T09:39:57.092Z,63015.81
2024-05-09T09:42:27.884Z,63049.09
2024-05-09T09:45:04.612Z,63013.22
2024-05-09T09:47:35.353Z,63024.59
2024-05-09T09:50:12.027Z,63049.09
2024-05-09T09:52:41.812Z,63050.75
2024-05-09T09:55:15.063Z,63075.25
2024-05-09T09:57:44.459Z,63058.31
2024-05-09T10:00:23.615Z,63067.09
2024-05-09T10:02:54.100Z,63074.66
2024-05-09T10:05:24.283Z,63075.66
2024-05-09T10:07:52.777Z,63075.19
2024-05-09T10:10:32.473Z,63032.19
2024-05-09T10:13:01.386Z,63075.75
2024-05-09T10:15:31.372Z,63063.78
2024-05-09T10:18:05.529Z,63074.06
2024-05-09T10:20:43.397Z,63135.66
2024-05-09T10:23:27.618Z,63155.28
2024-05-09T10:26:05.307Z,63190.09
2024-05-09T10:28:35.580Z,63153.06
2024-05-09T10:31:09.965Z,63204.81
2024-05-09T10:33:45.375Z,63185.31
2024-05-09T10:36:16.099Z,63174.25
2024-05-09T10:38:43.991Z,63194.47
2024-05-09T10:41:16.504Z,63264.28
2024-05-09T10:43:46.177Z,63251.06
2024-05-09T10:46:16.689Z,63240.25
2024-05-09T10:48:44.389Z,63236.47
2024-05-09T10:51:14.904Z,63202.09
2024-05-09T10:53:42.708Z,63184.13
2024-05-09T10:56:13.072Z,63214.03
2024-05-09T10:58:42.989Z,63196.63
2024-05-09T11:01:14.097Z,63220.00
2024-05-09T11:03:41.988Z,63217.94
2024-05-09T11:06:13.880Z,63241.31
2024-05-09T11:08:42.352Z,63264.25
2024-05-09T11:11:12.317Z,63294.22
2024-05-09T11:13:42.874Z,63249.00
2024-05-09T11:16:20.633Z,63249.53
2024-05-09T11:18:55.750Z,63252.31
2024-05-09T11:21:27.018Z,63238.09
2024-05-09T11:23:54.804Z,63269.16
2024-05-09T11:26:25.480Z,63292.56
2024-05-09T11:28:55.387Z,63335.09
2024-05-09T11:31:25.377Z,63371.13
2024-05-09T11:33:54.769Z,63326.94
2024-05-09T11:36:24.693Z,63356.94
2024-05-09T11:38:51.876Z,63425.69
2024-05-09T11:41:21.722Z,63372.28
2024-05-09T11:43:48.893Z,63374.41
2024-05-09T11:46:21.621Z,63374.97
2024-05-09T11:48:49.102Z,63351.50
2024-05-09T11:51:18.955Z,63300.75
2024-05-09T11:53:46.113Z,63300.22
2024-05-09T11:56:28.045Z,63264.28
2024-05-09T11:58:55.188Z,63291.50
2024-05-09T12:01:28.124Z,63311.06
2024-05-09T12:03:55.601Z,63322.69
2024-05-09T12:06:25.630Z,63348.78
2024-05-09T12:08:52.832Z,63393.44
2024-05-09T12:11:22.634Z,63473.19
2024-05-09T12:13:49.780Z,63418.72
2024-05-09T12:16:19.756Z,63387.50
2024-05-09T12:18:49.954Z,63348.38
2024-05-09T12:21:20.771Z,63353.19
2024-05-09T12:23:47.963Z,63367.22
2024-05-09T12:26:18.497Z,63332.38
2024-05-09T12:28:45.698Z,63401.22
2024-05-09T12:31:15.577Z,63466.13
2024-05-09T12:33:42.816Z,63456.28
2024-05-09T12:36:15.358Z,63454.22
2024-05-09T12:38:42.526Z,63439.34
2024-05-09T12:41:12.300Z,63421.88
2024-05-09T12:43:39.514Z,63398.91
2024-05-09T12:46:09.477Z,63388.59
2024-05-09T12:48:37.174Z,63396.75
2024-05-09T12:51:07.433Z,63400.66
2024-05-09T12:53:37.291Z,63403.31
2024-05-09T12:56:09.385Z,63387.56
2024-05-09T12:58:36.991Z,63378.22
2024-05-09T13:01:08.936Z,63395.03
2024-05-09T13:03:36.299Z,63427.88
2024-05-09T13:06:06.412Z,63400.06
2024-05-09T13:08:33.612Z,63421.84
2024-05-09T13:11:06.169Z,63438.34
2024-05-09T13:13:33.419Z,63490.66
2024-05-09T13:16:03.320Z,63607.03
2024-05-09T13:18:30.703Z,63583.06
2024-05-09T13:21:00.522Z,63521.94
2024-05-09T13:23:27.710Z,63489.06
2024-05-09T13:25:57.596Z,63504.84
2024-05-09T13:28:27.622Z,63496.69
2024-05-09T13:30:57.578Z,63481.38
2024-05-09T13:33:24.822Z,63472.69
2024-05-09T13:35:54.776Z,63452.97
2024-05-09T13:38:22.524Z,63445.38
2024-05-09T13:40:53.445Z,63463.94
2024-05-09T13:43:22.306Z,63443.19
2024-05-09T13:45:55.933Z,63424.13
2024-05-09T13:48:23.067Z,63553.59
2024-05-09T13:50:52.939Z,63539.94
2024-05-09T13:53:24.175Z,63553.47
2024-05-09T13:55:54.104Z,63597.25
2024-05-09T13:58:23.614Z,63594.56
2024-05-09T14:00:56.401Z,63663.97
2024-05-09T14:03:24.745Z,63687.50
2024-05-09T14:05:54.851Z,63654.19
2024-05-09T14:08:22.970Z,63649.72
2024-05-09T14:10:53.888Z,63586.91
2024-05-09T14:13:21.380Z,63526.81
2024-05-09T14:15:51.521Z,63527.25
2024-05-09T14:18:21.714Z,63508.75
2024-05-09T14:20:51.490Z,63526.75
2024-05-09T14:23:18.963Z,63528.34
2024-05-09T14:25:52.164Z,63487.47
2024-05-09T14:28:19.909Z,63497.75
2024-05-09T14:30:49.759Z,63520.16
2024-05-09T14:33:23.666Z,63528.88
2024-05-09T14:35:56.305Z,63570.47
2024-05-09T14:38:24.164Z,63564.47
2024-05-09T14:40:54.020Z,63607.09
2024-05-09T14:43:21.491Z,63648.06
2024-05-09T14:45:52.715Z,63623.00
2024-05-09T14:48:20.405Z,63694.09
2024-05-09T14:50:50.594Z,63693.00
2024-05-09T14:53:23.683Z,63678.22
2024-05-09T14:55:53.583Z,63612.63
2024-05-09T14:58:20.853Z,63565.06
2024-05-09T15:00:51.751Z,63590.22
2024-05-09T15:03:20.236Z,63613.66
2024-05-09T15:05:51.600Z,63517.41
2024-05-09T15:08:21.950Z,63603.22
2024-05-09T15:10:52.258Z,63630.63
2024-05-09T15:13:19.983Z,63619.78
2024-05-09T15:15:50.087Z,63620.81
2024-05-09T15:18:19.964Z,63617.09
2024-05-09T15:20:50.194Z,63604.31
2024-05-09T15:23:17.466Z,63636.59
2024-05-09T15:25:49.872Z,63600.53
2024-05-09T15:28:17.183Z,63597.84
2024-05-09T15:30:48.237Z,63590.22
2024-05-09T15:33:15.664Z,63570.41
2024-05-09T15:35:48.594Z,63545.84
2024-05-09T15:38:20.467Z,63424.56
2024-05-09T15:40:53.757Z,63441.59
2024-05-09T15:43:21.058Z,63453.63
2024-05-09T15:45:51.301Z,63434.44
2024-05-09T15:48:18.988Z,63425.69
2024-05-09T15:50:48.989Z,63458.47
2024-05-09T15:53:16.451Z,63460.72
2024-05-09T15:55:46.202Z,63465.03
2024-05-09T15:58:16.275Z,63462.28
2024-05-09T16:00:48.673Z,63444.34
2024-05-09T16:03:17.746Z,63475.47
2024-05-09T16:05:48.322Z,63495.63
2024-05-09T16:08:16.536Z,63545.94
2024-05-09T16:10:47.451Z,63547.63
2024-05-09T16:13:19.806Z,63544.78
2024-05-09T16:15:49.965Z,63575.94
2024-05-09T16:18:17.477Z,63589.56
2024-05-09T16:20:49.589Z,63598.88
2024-05-09T16:23:17.764Z,63594.03
2024-05-09T16:25:48.490Z,63546.97
2024-05-09T16:28:19.394Z,63507.59
2024-05-09T16:30:50.014Z,63489.00
2024-05-09T16:33:20.997Z,63478.78
2024-05-09T16:35:51.088Z,63507.53
2024-05-09T16:38:18.682Z,63510.91
2024-05-09T16:40:48.952Z,63554.13
2024-05-09T16:43:19.392Z,63530.03
2024-05-09T16:45:49.379Z,63492.88
2024-05-09T16:48:17.062Z,63474.97
2024-05-09T16:50:46.875Z,63435.53
2024-05-09T16:53:14.037Z,63436.63
2024-05-09T16:55:43.940Z,63407.69
2024-05-09T16:58:12.753Z,63408.84
2024-05-09T17:00:45.529Z,63397.97
2024-05-09T17:03:15.204Z,63409.38
2024-05-09T17:05:47.041Z,63413.72
2024-05-09T17:08:18.639Z,63423.53
2024-05-09T17:10:46.435Z,63365.69
2024-05-09T17:13:16.593Z,63365.69
2024-05-09T17:15:50.045Z,63383.19
2024-05-09T17:18:20.369Z,63390.72
2024-05-09T17:20:49.265Z,63384.28
2024-05-09T17:23:19.731Z,63393.44
2024-05-09T17:25:47.994Z,63402.25
2024-05-09T17:28:19.338Z,63398.41
2024-05-09T17:30:50.119Z,63400.56
2024-05-09T17:33:20.120Z,63420.19
2024-05-09T17:35:50.821Z,63417.53
2024-05-09T17:38:23.039Z,63408.25
2024-05-09T17:40:50.910Z,63419.16
2024-05-09T17:43:20.942Z,63403.94
2024-05-09T17:45:50.923Z,63401.69
2024-05-09T17:48:20.937Z,63392.97
2024-05-09T17:50:48.189Z,63389.16
2024-05-09T17:53:17.973Z,63373.38
2024-05-09T17:55:45.190Z,63343.31
2024-05-09T17:58:15.652Z,63343.78
2024-05-09T18:00:43.074Z,63314.94
2024-05-09T18:03:15.648Z,63312.22
2024-05-09T18:05:44.125Z,63301.31
2024-05-09T18:08:14.716Z,63289.31
2024-05-09T18:10:42.342Z,63273.06
2024-05-09T18:13:13.459Z,63270.81
2024-05-09T18:15:41.258Z,63273.97
2024-05-09T18:18:11.973Z,63259.38
2024-05-09T18:20:45.364Z,63234.78
2024-05-09T18:23:18.034Z,63223.28
2024-05-09T18:25:47.184Z,63227.66
2024-05-09T18:28:17.930Z,63225.03
2024-05-09T18:30:45.465Z,63215.75
2024-05-09T18:33:15.875Z,63196.63
2024-05-09T18:35:45.799Z,63192.28
2024-05-09T18:38:18.658Z,63164.44
2024-05-09T18:40:48.503Z,63162.88
2024-05-09T18:43:25.952Z,63140.63
2024-05-09T18:46:00.744Z,63135.06
2024-05-09T18:48:28.046Z,63130.72
2024-05-09T18:51:00.585Z,63132.84
2024-05-09T18:53:31.237Z,63128.47
2024-05-09T18:56:01.131Z,63086.09
2024-05-09T18:58:28.310Z,63052.34
2024-05-09T19:01:00.830Z,63031.63
2024-05-09T19:03:29.112Z,63001.66
2024-05-09T19:06:04.733Z,62992.97
2024-05-09T19:08:32.060Z,62987.09
2024-05-09T19:11:02.196Z,62986.44
2024-05-09T19:13:29.706Z,62982.16
2024-05-09T19:15:59.974Z,62969.03
2024-05-09T19:18:27.284Z,62974.53
2024-05-09T19:20:57.291Z,62946.19
2024-05-09T19:23:27.108Z,62938.09
2024-05-09T19:25:56.956Z,62930.44
2024-05-09T19:28:24.307Z,62930.44
2024-05-09T19:30:54.230Z,62899.38
2024-05-09T19:33:21.460Z,62896.25
2024-05-09T19:35:51.343Z,62865.19
2024-05-09T19:38:18.712Z,62830.97
2024-05-09T19:40:51.174Z,62856.53
2024-05-09T19:43:18.616Z,62863.03
2024-05-09T19:45:48.692Z,62849.03
2024-05-09T19:48:16.638Z,62853.25
2024-05-09T19:50:49.771Z,62844.56
2024-05-09T19:53:18.615Z,62827.72
2024-05-09T19:55:51.001Z,62825.09
2024-05-09T19:58:18.230Z,62818.03
2024-05-09T20:00:48.147Z,62795.34
2024-05-09T20:03:16.168Z,62790.91
2024-05-09T20:05:48.802Z,62782.78
2024-05-09T20:08:16.609Z,62765.25
2024-05-09T20:10:52.420Z,62718.72
2024-05-09T20:13:19.763Z,62747.97
2024-05-09T20:15:50.816Z,62757.13
2024-05-09T20:18:19.442Z,62761.41
2024-05-09T20:20:55.215Z,62728.38
2024-05-09T20:23:22.532Z,62738.81
2024-05-09T20:25:57.321Z,62728.97
2024-05-09T20:28:24.689Z,62741.38
2024-05-09T20:30:55.604Z,62732.78
2024-05-09T20:33:25.849Z,62698.66
2024-05-09T20:36:01.646Z,62725.78
2024-05-09T20:38:29.417Z,62722.94
2024-05-09T20:41:02.075Z,62708.41
2024-05-09T20:43:29.389Z,62705.06
2024-05-09T20:45:59.243Z,62696.91
2024-05-09T20:48:26.612Z,62709.44
2024-05-09T20:50:56.516Z,62714.88
2024-05-09T20:53:23.899Z,62705.09
2024-05-09T20:55:54.003Z,62685.53
2024-05-09T20:58:24.116Z,62692.06
2024-05-09T21:00:55.731Z,62686.59
2024-05-09T21:03:23.032Z,62668.22
2024-05-09T21:05:52.963Z,62674.78
2024-05-09T21:08:20.126Z,62669.31
2024-05-09T21:10:49.965Z,62673.66
2024-05-09T21:13:17.206Z,62692.56
2024-05-09T21:15:49.751Z,62685.09
2024-05-09T21:18:17.010Z,62695.81
2024-05-09T21:20:47.130Z,62691.06
2024-05-09T21:23:15.623Z,62704.63
2024-05-09T21:25:45.560Z,62716.38
2024-05-09T21:28:13.483Z,62708.97
2024-05-09T21:30:43.595Z,62711.00
2024-05-09T21:33:14.856Z,62729.47
2024-05-09T21:35:45.791Z,62738.19
2024-05-09T21:38:14.611Z,62747.91
2024-05-09T21:40:45.428Z,62754.91
2024-05-09T21:43:13.155Z,62734.41
2024-05-09T21:45:43.220Z,62722.94
2024-05-09T21:48:15.396Z,62698.00
2024-05-09T21:50:45.299Z,62703.41
2024-05-09T21:53:13.430Z,62707.19
2024-05-09T21:55:44.333Z,62713.72
2024-05-09T21:58:12.203Z,62704.00
2024-05-09T22:00:43.048Z,62689.84
2024-05-09T22:03:11.624Z,62690.94
2024-05-09T22:05:45.194Z,62703.47
2024-05-09T22:08:12.797Z,62693.72
2024-05-09T22:10:42.754Z,62686.47
2024-05-09T22:13:12.693Z,62658.38
2024-05-09T22:15:40.748Z,62670.88
2024-05-09T22:18:11.997Z,62627.00
2024-05-09T22:20:44.959Z,62631.25
2024-05-09T22:23:16.292Z,62600.38
2024-05-09T22:25:43.650Z,62621.56
2024-05-09T22:28:15.761Z,62621.03
2024-05-09T22:30:46.242Z,62596.03
2024-05-09T22:33:17.744Z,62588.44
2024-05-09T22:35:48.220Z,62566.22
2024-05-09T22:38:18.119Z,62565.69
2024-05-09T22:40:48.661Z,62576.53
2024-05-09T22:43:23.865Z,62586.34
2024-05-09T22:45:52.668Z,62580.31
2024-05-09T22:48:23.869Z,62585.75
2024-05-09T22:50:55.073Z,62572.31
2024-05-09T22:53:26.100Z,62571.19
2024-05-09T22:56:03.408Z,62551.59
2024-05-09T22:58:33.201Z,62534.81
2024-05-09T23:01:00.537Z,62523.44
2024-05-09T23:03:30.621Z,62527.78
2024-05-09T23:06:00.507Z,62474.13
2024-05-09T23:08:30.310Z,62501.81
2024-05-09T23:10:57.748Z,62499.56
2024-05-09T23:13:27.814Z,62500.13
2024-05-09T23:15:55.116Z,62472.50
2024-05-09T23:18:24.932Z,62462.22
2024-05-09T23:20:52.110Z,62444.50
2024-05-09T23:23:24.577Z,62487.06
2024-05-09T23:25:51.699Z,62475.28
2024-05-09T23:28:21.656Z,62419.06
2024-05-09T23:30:49.068Z,62452.47
2024-05-09T23:33:19.068Z,62396.81
2024-05-09T23:35:46.249Z,62439.63
2024-05-09T23:38:16.309Z,62451.94
2024-05-09T23:40:46.214Z,62380.84
2024-05-09T23:43:17.142Z,62426.56
2024-05-09T23:45:44.377Z,62423.31
2024-05-09T23:48:14.429Z,62433.53
2024-05-09T23:50:42.013Z,62436.25
2024-05-09T23:53:11.913Z,62409.25
2024-05-09T23:55:39.492Z,62371.88
2024-05-09T23:58:12.300Z,62383.22
